createdAt,value
2017-07-30T00:02:26.583Z,20.00
2017-07-30T00:04:54.144Z,20.10
2017-07-30T00:07:22.240Z,20.10
2017-07-30T00:09:50.611Z,20.00
2017-07-30T00:12:18.193Z,20.00
2017-07-30T00:14:46.556Z,20.00
2017-07-30T00:17:14.133Z,20.00
2017-07-30T00:19:42.171Z,20.00
2017-07-30T00:22:10.085Z,20.00
2017-07-30T00:24:37.668Z,20.00
2017-07-30T00:27:05.265Z,20.00
2017-07-30T00:29:32.840Z,20.00
2017-07-30T00:32:01.508Z,20.00
2017-07-30T00:34:29.074Z,19.90
2017-07-30T00:36:56.648Z,20.00
2017-07-30T00:39:25.132Z,19.90
2017-07-30T00:41:53.466Z,20.00
2017-07-30T00:44:21.390Z,20.00
2017-07-30T00:46:48.945Z,20.00
2017-07-30T00:49:16.522Z,20.00
2017-07-30T00:51:44.130Z,20.00
2017-07-30T00:54:11.715Z,20.10
2017-07-30T00:56:40.383Z,20.10
2017-07-30T00:59:07.950Z,20.10
2017-07-30T01:01:35.524Z,20.00
2017-07-30T01:04:03.906Z,20.00
2017-07-30T01:06:31.469Z,20.00
2017-07-30T01:08:59.522Z,20.00
2017-07-30T01:11:27.862Z,19.90
2017-07-30T01:13:55.432Z,19.90
2017-07-30T01:16:23.030Z,19.90
2017-07-30T01:18:50.598Z,19.80
2017-07-30T01:21:18.644Z,19.80
2017-07-30T01:23:46.218Z,19.70
2017-07-30T01:26:13.777Z,19.70
2017-07-30T01:28:42.162Z,19.60
2017-07-30T01:31:09.721Z,19.60
2017-07-30T01:33:38.382Z,19.60
2017-07-30T01:36:05.968Z,19.60
2017-07-30T01:38:33.540Z,19.60
2017-07-30T01:41:01.123Z,19.60
2017-07-30T01:43:28.799Z,19.60
2017-07-30T01:45:56.691Z,19.70
2017-07-30T01:48:24.259Z,19.60
2017-07-30T01:50:51.816Z,19.60
2017-07-30T01:53:20.186Z,19.60
2017-07-30T01:58:22.004Z,19.60
2017-07-30T02:00:49.582Z,19.60
2017-07-30T02:03:17.159Z,19.60
2017-07-30T02:05:44.747Z,19.60
2017-07-30T02:08:12.443Z,19.50
2017-07-30T02:10:40.478Z,19.50
2017-07-30T02:13:08.040Z,19.50
2017-07-30T02:15:35.604Z,19.60
2017-07-30T02:18:03.200Z,19.60
2017-07-30T02:20:30.763Z,19.60
2017-07-30T02:22:58.780Z,19.60
2017-07-30T02:25:26.337Z,19.60
2017-07-30T02:27:53.917Z,19.60
2017-07-30T02:30:22.419Z,19.50
2017-07-30T02:32:49.980Z,19.50
2017-07-30T02:35:17.907Z,19.50
2017-07-30T02:37:45.473Z,19.50
2017-07-30T02:40:13.047Z,19.50
2017-07-30T02:42:41.383Z,19.50
2017-07-30T02:45:08.975Z,19.50
2017-07-30T02:47:36.852Z,19.50
2017-07-30T02:50:05.185Z,19.50
2017-07-30T02:52:32.732Z,19.50
2017-07-30T02:55:00.325Z,19.50
2017-07-30T02:57:27.896Z,19.50
2017-07-30T02:59:55.785Z,19.50
2017-07-30T03:02:24.094Z,19.50
2017-07-30T03:04:51.862Z,19.40
2017-07-30T03:07:19.550Z,19.40
2017-07-30T03:09:47.107Z,19.40
2017-07-30T03:12:15.088Z,19.40
2017-07-30T03:14:42.663Z,19.40
2017-07-30T03:17:10.208Z,19.40
2017-07-30T03:19:38.084Z,19.40
2017-07-30T03:22:06.415Z,19.40
2017-07-30T03:24:34.419Z,19.30
2017-07-30T03:27:01.985Z,19.40
2017-07-30T03:29:29.553Z,19.40
2017-07-30T03:31:57.136Z,19.40
2017-07-30T03:34:24.720Z,19.40
2017-07-30T03:36:52.727Z,19.40
2017-07-30T03:39:20.303Z,19.40
2017-07-30T03:41:48.106Z,19.40
2017-07-30T03:44:15.701Z,19.40
2017-07-30T03:46:43.410Z,19.40
2017-07-30T03:49:12.064Z,19.60
2017-07-30T03:51:39.614Z,19.60
2017-07-30T03:54:07.191Z,19.70
2017-07-30T03:56:34.770Z,19.80
2017-07-30T03:59:02.346Z,19.90
2017-07-30T04:01:30.382Z,19.90
2017-07-30T04:03:57.941Z,20.00
2017-07-30T04:06:25.521Z,20.10
2017-07-30T04:08:53.875Z,20.30
2017-07-30T04:11:21.436Z,20.20
2017-07-30T04:13:49.292Z,20.40
2017-07-30T04:16:16.862Z,20.40
2017-07-30T04:18:44.437Z,20.50
2017-07-30T04:21:12.826Z,20.70
2017-07-30T04:23:40.382Z,20.70
2017-07-30T04:26:09.037Z,20.90
2017-07-30T04:28:36.604Z,20.80
2017-07-30T04:31:04.160Z,20.90
2017-07-30T04:33:31.752Z,21.00
2017-07-30T04:35:59.321Z,21.10
2017-07-30T04:38:27.367Z,21.20
2017-07-30T04:40:55.700Z,21.40
2017-07-30T04:43:23.250Z,21.40
2017-07-30T04:45:50.979Z,21.50
2017-07-30T04:48:19.316Z,21.60
2017-07-30T04:50:47.290Z,21.70
2017-07-30T04:53:14.860Z,21.80
2017-07-30T04:55:42.418Z,21.80
2017-07-30T04:58:10.011Z,21.90
2017-07-30T05:00:37.572Z,22.00
2017-07-30T05:03:05.444Z,22.00
2017-07-30T05:05:33.016Z,22.10
2017-07-30T05:08:00.573Z,22.10
2017-07-30T05:10:28.393Z,22.20
2017-07-30T05:12:55.954Z,22.30
2017-07-30T05:15:23.916Z,22.30
2017-07-30T05:17:51.506Z,22.40
2017-07-30T05:20:19.085Z,22.50
2017-07-30T05:22:46.730Z,22.60
2017-07-30T05:25:14.296Z,22.70
2017-07-30T05:27:42.362Z,22.80
2017-07-30T05:30:09.960Z,22.80
2017-07-30T05:32:37.532Z,22.90
2017-07-30T05:35:05.118Z,23.00
2017-07-30T05:37:32.672Z,23.00
2017-07-30T05:40:00.760Z,23.10
2017-07-30T05:42:29.094Z,23.20
2017-07-30T05:44:56.672Z,23.20
2017-07-30T05:47:24.283Z,23.30
2017-07-30T05:49:51.841Z,23.40
2017-07-30T05:52:19.881Z,23.50
2017-07-30T05:54:47.434Z,23.60
2017-07-30T05:57:14.996Z,23.70
2017-07-30T05:59:43.505Z,23.80
2017-07-30T06:02:11.346Z,23.80
2017-07-30T06:04:40.068Z,24.00
2017-07-30T06:07:07.651Z,23.90
2017-07-30T06:09:35.217Z,24.00
2017-07-30T06:12:02.812Z,24.10
2017-07-30T06:14:31.138Z,24.20
2017-07-30T06:16:59.000Z,24.20
2017-07-30T06:19:26.561Z,24.30
2017-07-30T06:21:54.140Z,24.30
2017-07-30T06:24:21.737Z,24.40
2017-07-30T06:26:50.060Z,24.50
2017-07-30T06:29:18.073Z,24.50
2017-07-30T06:31:45.622Z,24.60
2017-07-30T06:34:13.186Z,24.70
2017-07-30T06:36:40.772Z,24.80
2017-07-30T06:39:08.324Z,24.80
2017-07-30T06:41:37.008Z,25.00
2017-07-30T06:44:05.343Z,25.10
2017-07-30T06:46:32.914Z,25.10
2017-07-30T06:49:00.516Z,25.10
2017-07-30T06:51:28.154Z,25.20
2017-07-30T06:53:56.131Z,25.30
2017-07-30T06:56:23.700Z,25.40
2017-07-30T06:58:51.263Z,25.50
2017-07-30T07:01:19.625Z,25.60
2017-07-30T07:03:47.187Z,25.60
2017-07-30T07:06:15.075Z,25.70
2017-07-30T07:08:43.411Z,25.90
2017-07-30T07:11:10.986Z,25.90
2017-07-30T07:13:38.591Z,25.90
2017-07-30T07:16:06.194Z,26.00
2017-07-30T07:18:34.181Z,26.10
2017-07-30T07:21:01.761Z,26.20
2017-07-30T07:23:29.378Z,26.20
2017-07-30T07:25:56.959Z,26.30
2017-07-30T07:28:24.526Z,26.40
2017-07-30T07:30:52.485Z,26.50
2017-07-30T07:33:20.053Z,26.50
2017-07-30T07:35:47.643Z,26.60
2017-07-30T07:38:15.253Z,26.70
2017-07-30T07:40:42.807Z,26.80
2017-07-30T07:43:10.661Z,26.90
2017-07-30T07:45:38.228Z,27.00
2017-07-30T07:48:05.788Z,27.20
2017-07-30T07:50:33.410Z,27.30
2017-07-30T07:53:00.996Z,27.40
2017-07-30T07:55:29.098Z,27.60
2017-07-30T07:57:56.666Z,27.70
2017-07-30T08:00:24.236Z,27.80
2017-07-30T08:02:52.614Z,28.00
2017-07-30T08:05:20.169Z,28.00
2017-07-30T08:07:48.037Z,28.10
2017-07-30T08:10:15.601Z,28.20
2017-07-30T08:12:43.195Z,28.30
2017-07-30T08:15:10.800Z,28.50
2017-07-30T08:17:38.362Z,28.50
2017-07-30T08:20:06.341Z,28.60
2017-07-30T08:22:33.959Z,28.70
2017-07-30T08:25:01.522Z,28.70
2017-07-30T08:27:29.138Z,28.90
2017-07-30T08:29:57.471Z,29.10
2017-07-30T08:32:25.462Z,29.10
2017-07-30T08:34:53.044Z,29.10
2017-07-30T08:37:20.610Z,29.20
2017-07-30T08:39:48.964Z,29.40
2017-07-30T08:42:16.519Z,29.40
2017-07-30T08:44:44.598Z,29.50
2017-07-30T08:47:12.175Z,29.70
2017-07-30T08:49:39.924Z,29.70
2017-07-30T08:52:07.510Z,29.80
2017-07-30T08:54:35.069Z,30.10
2017-07-30T08:57:03.094Z,30.10
2017-07-30T08:59:30.639Z,30.00
2017-07-30T09:01:58.208Z,29.90
2017-07-30T09:04:25.810Z,29.90
2017-07-30T09:06:53.380Z,29.40
2017-07-30T09:09:21.421Z,29.10
2017-07-30T09:11:48.980Z,29.00
2017-07-30T09:14:16.553Z,29.00
2017-07-30T09:16:44.916Z,29.10
2017-07-30T09:19:12.479Z,29.10
2017-07-30T09:21:40.554Z,29.50
2017-07-30T09:24:08.894Z,29.90
2017-07-30T09:26:36.457Z,29.80
2017-07-30T09:29:04.073Z,30.00
2017-07-30T09:31:31.646Z,30.10
2017-07-30T09:33:59.517Z,30.20
2017-07-30T09:36:27.088Z,30.30
2017-07-30T09:38:54.660Z,30.30
2017-07-30T09:41:22.280Z,30.40
2017-07-30T09:43:50.605Z,30.50
2017-07-30T09:46:18.605Z,30.50
2017-07-30T09:48:46.185Z,30.60
2017-07-30T09:51:13.750Z,30.60
2017-07-30T09:53:41.357Z,30.70
2017-07-30T09:56:08.911Z,30.70
2017-07-30T09:58:36.901Z,30.80
2017-07-30T10:01:04.477Z,30.80
2017-07-30T10:03:32.002Z,30.80
2017-07-30T10:05:59.591Z,30.90
2017-07-30T10:08:27.144Z,30.90
2017-07-30T10:10:55.225Z,31.00
2017-07-30T10:13:23.550Z,31.00
2017-07-30T10:15:51.131Z,31.00
2017-07-30T10:18:18.739Z,31.00
2017-07-30T10:20:46.307Z,30.80
2017-07-30T10:23:14.306Z,30.80
2017-07-30T10:25:42.673Z,30.80
2017-07-30T10:28:10.238Z,30.70
2017-07-30T10:30:37.827Z,30.80
2017-07-30T10:33:05.377Z,30.80
2017-07-30T10:35:33.463Z,30.80
2017-07-30T10:38:01.008Z,30.80
2017-07-30T10:40:28.571Z,30.80
2017-07-30T10:42:56.234Z,30.80
2017-07-30T10:45:23.768Z,30.80
2017-07-30T10:47:51.767Z,30.80
2017-07-30T10:50:19.332Z,30.90
2017-07-30T10:52:46.895Z,31.00
2017-07-30T10:55:14.509Z,31.00
2017-07-30T10:57:42.085Z,31.00
2017-07-30T11:00:10.301Z,30.90
2017-07-30T11:02:37.876Z,30.90
2017-07-30T11:05:05.445Z,30.80
2017-07-30T11:07:33.829Z,30.80
2017-07-30T11:10:01.392Z,30.80
2017-07-30T11:12:29.625Z,30.80
2017-07-30T11:14:57.180Z,30.80
2017-07-30T11:17:24.743Z,30.80
2017-07-30T11:19:52.460Z,30.80
2017-07-30T11:22:20.030Z,30.80
2017-07-30T11:24:47.938Z,30.70
2017-07-30T11:27:15.529Z,30.60
2017-07-30T11:29:43.104Z,30.60
2017-07-30T11:32:10.731Z,30.60
2017-07-30T11:34:38.299Z,30.90
2017-07-30T11:37:06.152Z,31.10
2017-07-30T11:39:33.723Z,31.30
2017-07-30T11:42:02.076Z,31.30
2017-07-30T11:44:29.693Z,31.30
2017-07-30T11:46:57.248Z,31.10
2017-07-30T11:49:25.162Z,30.90
2017-07-30T11:51:52.817Z,30.80
2017-07-30T11:54:20.366Z,30.90
2017-07-30T11:56:47.983Z,31.00
2017-07-30T11:59:15.648Z,31.10
2017-07-30T12:01:44.300Z,31.20
2017-07-30T12:04:11.851Z,31.10
2017-07-30T12:06:39.392Z,31.20
2017-07-30T12:09:06.991Z,31.20
2017-07-30T12:11:34.545Z,31.10
2017-07-30T12:14:02.419Z,31.10
2017-07-30T12:16:30.927Z,30.80
2017-07-30T12:18:58.596Z,30.80
2017-07-30T12:21:26.185Z,30.80
2017-07-30T12:23:53.762Z,30.70
2017-07-30T12:26:21.732Z,30.60
2017-07-30T12:28:49.321Z,30.60
2017-07-30T12:31:16.891Z,30.60
2017-07-30T12:33:44.491Z,30.70
2017-07-30T12:36:12.121Z,30.70
2017-07-30T12:38:40.080Z,30.80
2017-07-30T12:41:08.400Z,30.80
2017-07-30T12:43:36.717Z,30.80
2017-07-30T12:46:04.308Z,30.80
2017-07-30T12:48:31.857Z,30.70
2017-07-30T12:50:59.779Z,30.70
2017-07-30T12:53:27.328Z,30.70
2017-07-30T12:55:54.886Z,30.60
2017-07-30T12:58:22.531Z,30.70
2017-07-30T13:00:50.090Z,30.90
2017-07-30T13:03:18.089Z,31.40
2017-07-30T13:05:45.650Z,31.90
2017-07-30T13:08:13.211Z,32.30
2017-07-30T13:10:40.814Z,32.80
2017-07-30T13:13:08.384Z,33.40
2017-07-30T13:15:36.310Z,34.30
2017-07-30T13:18:04.319Z,35.00
2017-07-30T13:20:31.890Z,34.80
2017-07-30T13:22:59.491Z,35.70
2017-07-30T13:25:27.066Z,36.30
2017-07-30T13:27:54.985Z,37.00
2017-07-30T13:30:22.523Z,37.60
2017-07-30T13:32:50.094Z,38.10
2017-07-30T13:35:17.688Z,38.70
2017-07-30T13:37:45.271Z,39.30
2017-07-30T13:40:13.811Z,39.80
2017-07-30T13:42:41.372Z,40.30
2017-07-30T13:45:08.945Z,40.80
2017-07-30T13:47:36.537Z,41.30
2017-07-30T13:50:04.092Z,41.80
2017-07-30T13:52:32.170Z,42.00
2017-07-30T13:55:00.512Z,42.40
2017-07-30T13:57:28.105Z,42.30
2017-07-30T13:59:55.744Z,42.50
2017-07-30T14:02:23.317Z,42.90
2017-07-30T14:04:51.296Z,43.40
2017-07-30T14:07:18.907Z,43.80
2017-07-30T14:09:46.456Z,44.10
2017-07-30T14:12:14.070Z,44.40
2017-07-30T14:14:41.670Z,44.70
2017-07-30T14:17:09.605Z,44.80
2017-07-30T14:19:37.938Z,45.40
2017-07-30T14:22:05.503Z,45.30
2017-07-30T14:24:33.132Z,45.60
2017-07-30T14:27:00.684Z,45.70
2017-07-30T14:29:29.324Z,46.10
2017-07-30T14:31:56.881Z,46.00
2017-07-30T14:34:24.442Z,46.30
2017-07-30T14:36:52.823Z,46.40
2017-07-30T14:39:20.391Z,46.00
2017-07-30T14:41:48.269Z,45.30
2017-07-30T14:44:16.614Z,43.10
2017-07-30T14:46:44.160Z,43.00
2017-07-30T14:49:11.823Z,42.80
2017-07-30T14:51:39.382Z,42.20
2017-07-30T14:54:07.251Z,41.00
2017-07-30T14:56:34.798Z,40.00
2017-07-30T14:59:02.378Z,39.20
2017-07-30T15:01:29.984Z,38.50
2017-07-30T15:03:58.319Z,37.40
2017-07-30T15:06:26.247Z,37.40
2017-07-30T15:08:54.090Z,36.90
2017-07-30T15:11:21.670Z,36.50
2017-07-30T15:13:49.274Z,36.50
2017-07-30T15:16:16.866Z,36.90
2017-07-30T15:18:44.831Z,36.90
2017-07-30T15:21:12.399Z,38.50
2017-07-30T15:23:39.982Z,39.90
2017-07-30T15:26:07.602Z,41.10
2017-07-30T15:28:35.163Z,42.30
2017-07-30T15:31:03.185Z,43.30
2017-07-30T15:33:30.764Z,44.20
2017-07-30T15:35:58.346Z,44.90
2017-07-30T15:38:26.296Z,45.70
2017-07-30T15:40:53.862Z,46.20
2017-07-30T15:43:21.868Z,46.80
2017-07-30T15:45:50.385Z,47.50
2017-07-30T15:48:17.965Z,47.50
2017-07-30T15:50:45.573Z,45.00
2017-07-30T15:53:13.146Z,43.40
2017-07-30T15:55:41.837Z,43.30
2017-07-30T15:58:09.408Z,43.30
2017-07-30T16:00:37.170Z,44.40
2017-07-30T16:03:04.769Z,45.20
2017-07-30T16:05:33.158Z,45.70
2017-07-30T16:08:01.024Z,45.60
2017-07-30T16:10:28.586Z,45.10
2017-07-30T16:12:56.146Z,44.80
2017-07-30T16:15:23.761Z,44.90
2017-07-30T16:17:51.321Z,45.70
2017-07-30T16:20:19.262Z,46.40
2017-07-30T16:22:47.603Z,46.90
2017-07-30T16:25:15.163Z,46.90
2017-07-30T16:27:42.772Z,44.00
2017-07-30T16:30:10.333Z,42.30
2017-07-30T16:32:38.382Z,40.80
2017-07-30T16:35:06.719Z,38.50
2017-07-30T16:37:34.304Z,38.50
2017-07-30T16:40:01.903Z,37.80
2017-07-30T16:42:29.471Z,37.10
2017-07-30T16:44:57.518Z,36.60
2017-07-30T16:47:25.861Z,35.70
2017-07-30T16:49:53.452Z,35.70
2017-07-30T16:52:22.138Z,35.00
2017-07-30T16:54:49.692Z,34.90
2017-07-30T16:57:17.569Z,34.70
2017-07-30T16:59:45.130Z,34.40
2017-07-30T17:02:13.471Z,33.90
2017-07-30T17:04:41.074Z,33.90
2017-07-30T17:07:09.398Z,33.50
2017-07-30T17:09:37.432Z,33.50
2017-07-30T17:12:05.789Z,33.20
2017-07-30T17:14:33.379Z,33.10
2017-07-30T17:17:00.980Z,33.00
2017-07-30T17:19:28.563Z,32.90
2017-07-30T17:21:56.537Z,32.70
2017-07-30T17:24:24.113Z,32.60
2017-07-30T17:26:51.701Z,32.50
2017-07-30T17:29:19.298Z,32.40
2017-07-30T17:31:46.869Z,32.30
2017-07-30T17:34:14.843Z,32.10
2017-07-30T17:36:42.417Z,32.00
2017-07-30T17:39:09.998Z,31.90
2017-07-30T17:41:37.599Z,31.80
2017-07-30T17:44:05.240Z,31.70
2017-07-30T17:46:33.146Z,31.60
2017-07-30T17:49:00.704Z,31.50
2017-07-30T17:51:28.279Z,31.40
2017-07-30T17:53:56.705Z,31.30
2017-07-30T17:56:24.279Z,31.20
2017-07-30T17:58:52.141Z,31.20
2017-07-30T18:01:19.783Z,31.00
2017-07-30T18:03:47.381Z,30.90
2017-07-30T18:06:15.093Z,30.80
2017-07-30T18:08:42.668Z,30.80
2017-07-30T18:11:10.786Z,30.60
2017-07-30T18:13:38.398Z,30.60
2017-07-30T18:16:05.972Z,30.50
2017-07-30T18:18:33.595Z,30.50
2017-07-30T18:21:01.931Z,30.30
2017-07-30T18:23:29.933Z,30.30
2017-07-30T18:25:58.285Z,30.20
2017-07-30T18:28:25.861Z,30.20
2017-07-30T18:30:53.502Z,30.10
2017-07-30T18:33:21.075Z,30.00
2017-07-30T18:35:49.042Z,29.90
2017-07-30T18:38:16.623Z,29.80
2017-07-30T18:40:44.206Z,29.70
2017-07-30T18:43:11.851Z,29.60
2017-07-30T18:45:40.188Z,29.50
2017-07-30T18:48:08.160Z,29.40
2017-07-30T18:50:35.729Z,29.30
2017-07-30T18:53:03.303Z,29.30
2017-07-30T18:55:31.206Z,29.20
2017-07-30T18:57:58.882Z,29.10
2017-07-30T19:00:26.785Z,29.00
2017-07-30T19:02:54.360Z,28.90
2017-07-30T19:05:21.948Z,28.90
2017-07-30T19:07:49.568Z,28.80
2017-07-30T19:10:17.173Z,28.80
2017-07-30T19:12:45.084Z,28.70
2017-07-30T19:15:12.746Z,28.60
2017-07-30T19:17:40.325Z,28.60
2017-07-30T19:20:07.929Z,28.50
2017-07-30T19:22:35.492Z,28.50
2017-07-30T19:25:03.505Z,28.40
2017-07-30T19:27:31.076Z,28.40
2017-07-30T19:29:58.737Z,28.30
2017-07-30T19:32:26.370Z,28.20
2017-07-30T19:34:53.962Z,28.10
2017-07-30T19:37:21.964Z,28.10
2017-07-30T19:39:49.564Z,28.10
2017-07-30T19:42:17.149Z,28.10
2017-07-30T19:44:44.759Z,28.00
2017-07-30T19:47:12.362Z,27.90
2017-07-30T19:49:40.343Z,27.90
2017-07-30T19:52:07.947Z,27.80
2017-07-30T19:54:35.604Z,27.80
2017-07-30T19:57:03.215Z,27.80
2017-07-30T19:59:31.731Z,27.70
2017-07-30T20:01:59.664Z,27.70
2017-07-30T20:04:27.241Z,27.70
2017-07-30T20:06:54.817Z,27.60
2017-07-30T20:09:23.204Z,27.60
2017-07-30T20:11:50.790Z,27.60
2017-07-30T20:14:18.673Z,27.50
2017-07-30T20:16:46.231Z,27.50
2017-07-30T20:19:13.868Z,27.40
2017-07-30T20:21:41.547Z,27.40
2017-07-30T20:24:09.102Z,27.30
2017-07-30T20:26:36.987Z,27.30
2017-07-30T20:29:04.546Z,27.20
2017-07-30T20:31:32.118Z,27.20
2017-07-30T20:33:59.841Z,27.10
2017-07-30T20:36:27.426Z,27.10
2017-07-30T20:38:55.426Z,27.00
2017-07-30T20:41:22.981Z,26.90
2017-07-30T20:43:50.546Z,26.90
2017-07-30T20:46:18.211Z,26.90
2017-07-30T20:48:46.552Z,26.70
2017-07-30T20:51:14.551Z,26.70
2017-07-30T20:53:42.972Z,26.70
2017-07-30T20:56:10.575Z,26.70
2017-07-30T20:58:38.185Z,26.70
2017-07-30T21:01:05.750Z,26.60
2017-07-30T21:03:33.899Z,26.50
2017-07-30T21:06:02.232Z,26.40
2017-07-30T21:08:29.801Z,26.40
2017-07-30T21:10:57.409Z,26.30
2017-07-30T21:13:24.984Z,26.30
2017-07-30T21:15:52.981Z,26.20
2017-07-30T21:18:20.548Z,26.20
2017-07-30T21:20:48.114Z,26.10
2017-07-30T21:25:49.689Z,26.00
2017-07-30T21:28:17.523Z,26.00
2017-07-30T21:30:45.084Z,25.90
2017-07-30T21:33:12.662Z,25.90
2017-07-30T21:35:40.267Z,25.90
2017-07-30T21:38:08.580Z,25.80
2017-07-30T21:40:36.448Z,25.80
2017-07-30T21:43:03.996Z,25.70
2017-07-30T21:45:31.557Z,25.70
2017-07-30T21:47:59.143Z,25.70
2017-07-30T21:50:26.736Z,25.60
2017-07-30T21:52:54.580Z,25.60
2017-07-30T21:55:22.131Z,25.60
2017-07-30T21:57:50.237Z,25.50
2017-07-30T22:00:17.844Z,25.50
2017-07-30T22:02:45.416Z,25.40
2017-07-30T22:05:13.411Z,25.40
2017-07-30T22:07:40.998Z,25.40
2017-07-30T22:10:08.558Z,25.40
2017-07-30T22:12:36.945Z,25.30
2017-07-30T22:15:04.495Z,25.30
2017-07-30T22:17:33.144Z,25.20
2017-07-30T22:20:00.702Z,25.20
2017-07-30T22:22:28.257Z,25.20
2017-07-30T22:24:55.886Z,25.10
2017-07-30T22:27:23.450Z,25.10
2017-07-30T22:29:51.392Z,25.10
2017-07-30T22:32:19.078Z,25.10
2017-07-30T22:34:46.657Z,25.10
2017-07-30T22:37:14.481Z,25.00
2017-07-30T22:39:42.044Z,25.00
2017-07-30T22:42:10.231Z,25.00
2017-07-30T22:44:37.793Z,24.90
2017-07-30T22:47:05.386Z,24.90
2017-07-30T22:49:32.979Z,24.90
2017-07-30T22:52:00.553Z,24.90
2017-07-30T22:54:28.908Z,24.90
2017-07-30T22:56:56.472Z,24.90
2017-07-30T22:59:24.028Z,24.90
2017-07-30T23:01:51.637Z,24.90
2017-07-30T23:04:19.230Z,24.80
2017-07-30T23:06:47.312Z,24.70
2017-07-30T23:09:14.871Z,24.60
2017-07-30T23:11:42.458Z,24.60
2017-07-30T23:14:10.831Z,24.60
2017-07-30T23:16:38.408Z,24.60
2017-07-30T23:19:06.272Z,24.60
2017-07-30T23:21:33.845Z,24.50
2017-07-30T23:24:01.405Z,24.50
2017-07-30T23:26:28.986Z,24.40
2017-07-30T23:28:56.547Z,24.40
2017-07-30T23:31:24.551Z,24.40
2017-07-30T23:33:52.121Z,24.30
2017-07-30T23:36:19.689Z,24.30
2017-07-30T23:38:48.052Z,24.30
2017-07-30T23:41:15.609Z,24.30
2017-07-30T23:43:43.663Z,24.30
2017-07-30T23:46:11.243Z,24.30
2017-07-30T23:48:38.839Z,24.30
2017-07-30T23:51:06.425Z,24.20
2017-07-30T23:53:33.988Z,24.20
2017-07-30T23:56:01.987Z,24.20
2017-07-30T23:58:29.550Z,24.20
